KFAT/FAT METAR and TAF weather

Enter ICAO airport designator
Station Type Date Time Source
KFAT METAR 2019/08/25 02:53 UTC NOAA

KFAT 250253Z 31009KT 10SM FEW150 FEW200 36/16 A2984 RMK AO2 SLP099 HZ DSNT ALQDS MTNS OBSC DSNT N-E-SE T03560156 53001


Station Type Date Time Source
KFAT Decoded METAR 2019/08/25 02:53 UTC NOAA

Station name not available
Aug 24, 2019 - 10:53 PM EDT / 2019.08.25 0253 UTC
Wind: from the NW (310 degrees) at 10 MPH (9 KT):0
Visibility: 10 mile(s):0
Sky conditions: mostly clear
Temperature: 96.1 F (35.6 C)
Heat index: 96.1 F (35.6 C):1
Dew Point: 60.1 F (15.6 C)
Relative Humidity: 30%
Pressure (altimeter): 29.84 in. Hg (1010 hPa)
Pressure tendency: 0.00 inches (0.1 hPa) higher than three hours ago
ob: KFAT 250253Z 31009KT 10SM FEW150 FEW200 36/16 A2984 RMK AO2 SLP099 HZ DSNT ALQDS MTNS OBSC DSNT N-E-SE T03560156 53001
cycle: 3

Station Type Date Time Source
KFAT TAF 2019/08/24 18:22 UTC NOAA

TAF KFAT 241720Z 2418/2518 VRB06KT P6SM SKC

Example: see airport list